Abbot, ME

1:49 PM EDT on September 18, 2014 (GMT -0400)
Millinocket Municipal | Change Station
CLOSE
Current Station
Airport
Location: Millinocket,
Elevation: 407 ft
Nearby Weather Stations
Active Advisory: Freeze Watch

Elev 407 ft 45.65 °N, 68.69 °W | Updated 56 minutes ago

Mostly Cloudy
Mostly Cloudy
59 °F
Feels Like 59 °F
N
10
Wind Variable Wind from WNW
Gusts 21 mph

Today
High -- | Low -- °F
--% Chance of Precip.
Yesterday
High -- | Low -- °F
Precip. -- in
6:20 AM 6:43 PM
Waning Crescent, 25% visible
Pressure 29.97 in
Visibility 10.0 miles
Clouds Few 4200 ft
Dew Point 40 °F
Humidity 49%
Rainfall 0.00 in
Snow Depth Not available.
UV 6 out of 12
Pollen 2.10 out of 12
Air Quality Not available.
Flu Activity Not available.
METAR KMLT 181653Z AUTO 29009G18KT 10SM FEW042 15/04 A2995 RMK AO2 SLP149 T01500044

More Conditions Fewer Conditions

Pressure 29.97 in
Visibility 10.0 miles
Clouds Few 4200 ft
Dew Point 40 °F
Humidity 49%
Rainfall 0.00 in
Snow Depth Not available.
UV 6 out of 12
Pollen 2.10 out of 12
Air Quality Not available.
Flu Activity Not available.
METAR KMLT 181653Z AUTO 29009G18KT 10SM FEW042 15/04 A2995 RMK AO2 SLP149 T01500044

More Conditions Fewer Conditions

10-Day Weather Forecast

Almanac

Astronomy

Sep. 18, 2014 Rise Set
Actual Time 6:20 AM EDT 6:43 PM EDT
Civil Twilight 5:50 AM EDT 7:13 PM EDT
Nautical Twilight 5:15 AM EDT 7:47 PM EDT
Astronomical Twilight 4:39 AM EDT 8:23 PM EDT
Moon 12:58 AM EDT 3:42 PM EDT
Length of Visible Light 13h 22m
Length of Day
12h 23m
Tomorrow will be 3m 8s shorter.
Waning Crescent, 25% of the Moon is Illuminated
Today
Waning Crescent
Sep 24
New
Oct 1
First Quarter
Oct 8
Full
Oct 15
Last Quarter

Today's Extremes

State Highs State Lows

Community

WunderPhotos

Upload Photos

1,754,409 photos uploaded!

Nearby

Air Quality

  Air Quality AQ Index Pollutant
Thursday Good
OZONE
Thursday Good
PM2.5
Friday Good
OZONE
Friday Good
PM2.5
Saturday Good
OZONE
Saturday Good
PM2.5

Snow Depth

Station Depth Elevation
No new snow has been reported.

Earthquake Activity

City Distance Mag. Time & Date
No recent earthquake activity has been reported nearby.
Minimum magnitude displayed is 2.5.

Coastal Water Temperatures

Place Temperature
No Stations Reporting

Nearby Weather Stations